Portada
METAR-TAF:

METAR-TAF

Aeroports :

Weipa, Austràlia

latitud: 12-40-43S, longitud: 141-55-31E, altitud: 19 m

Observació

L'informe es va fer fa 11 minuts, a les 16:00 UTC
Vent 18 kt del Nord
Temperatura 25°C
Humitat 94%
Pressió 993 hPa
Visibilitat: 3500 m
Cel ennuvolat a una alçada de 1000 ft
Cel cobert a una alçada de 1700 ft
Cel cobert a una alçada de 3400 ft
pluja

METAR: YBWP 201600Z AUTO 36018KT 3500 RA BKN010 OVC017 OVC034 25/24 Q0993

Hora: 02:11 (16:11 UTC)


TAF: manca

Observacions i pronòstics meteorològics de més de 4000 aeroports (METAR i TAF).

Les estacions disponibles són els punts grocs i vermells al mapa.

Posi el ratolí al punt desitjat per veure el nom de l'estació.

Feu clic per veure les observacions i els pronòstics meteorològics.

Per canviar el mapa: feu clic els botons verds amb una creu de color negre per apropar; al botó verd amb un guió per allunyar la imatge; o en les fletxes verdes per a mapes adjacents.


METAR-TAF: